Time;durP1;ratioP1;P1;durP2;ratioP2;P2;SDS_P1;SDS_P2;PMS_P1;PMS_P2;Temp;Humidity;BMP_temperature;BMP_pressure;BME280_temperature;BME280_humidity;BME280_pressure;Samples;Min_cycle;Max_cycle;Signal;HPM_P1;HPM_P2
2023/05/02 00:00:46;;;;;;;31.05;15.10;;;;;;;10.88;100.00;101821.38;5094689;28;20032;-87
2023/05/02 00:03:12;;;;;;;29.27;15.27;;;;;;;10.94;100.00;101818.91;5093501;28;20478;-87
2023/05/02 00:05:38;;;;;;;32.08;16.00;;;;;;;10.97;100.00;101830.25;5093149;28;20051;-87
2023/05/02 00:08:06;;;;;;;30.30;14.63;;;;;;;11.03;100.00;101829.47;5093336;28;20085;-87
2023/05/02 00:10:31;;;;;;;27.73;14.82;;;;;;;11.03;100.00;101825.91;5076667;28;20060;-87
2023/05/02 00:12:57;;;;;;;25.90;14.37;;;;;;;11.06;100.00;101839.09;5094446;28;20056;-87
2023/05/02 00:15:22;;;;;;;31.00;15.27;;;;;;;11.05;100.00;101831.97;5093490;28;20033;-87
2023/05/02 00:17:48;;;;;;;30.38;15.50;;;;;;;11.07;100.00;101846.19;5092660;28;20051;-87
2023/05/02 00:20:13;;;;;;;30.80;14.83;;;;;;;11.03;100.00;101847.63;5076113;28;20032;-87
2023/05/02 00:22:39;;;;;;;28.07;15.37;;;;;;;11.03;100.00;101844.94;5092904;28;20032;-87
2023/05/02 00:25:08;;;;;;;28.65;15.43;;;;;;;11.05;100.00;101849.09;5093189;28;20032;-87
2023/05/02 00:27:33;;;;;;;29.98;15.05;;;;;;;11.08;100.00;101849.75;5076033;28;20032;-87
2023/05/02 00:29:59;;;;;;;28.27;14.80;;;;;;;11.07;100.00;101846.19;5092828;28;20576;-87
2023/05/02 00:32:28;;;;;;;26.30;14.68;;;;;;;11.10;100.00;101844.97;5094364;28;20028;-87
2023/05/02 00:34:55;;;;;;;28.38;15.02;;;;;;;11.16;100.00;101860.47;5076458;28;20024;-87
2023/05/02 00:37:26;;;;;;;29.63;15.68;;;;;;;11.16;100.00;101865.91;5093047;28;20439;-87
2023/05/02 00:39:51;;;;;;;28.83;15.07;;;;;;;11.14;100.00;101859.84;5093057;28;20119;-88
2023/05/02 00:42:20;;;;;;;29.85;15.38;;;;;;;11.09;100.00;101854.16;5092852;28;20528;-87
2023/05/02 00:44:45;;;;;;;29.17;13.75;;;;;;;11.08;100.00;101853.31;5093889;28;20165;-87
2023/05/02 00:47:15;;;;;;;29.33;14.27;;;;;;;11.04;100.00;101852.00;5092090;28;20467;-88
2023/05/02 00:49:41;;;;;;;26.83;13.57;;;;;;;10.96;100.00;101861.13;5093699;28;20349;-87
2023/05/02 00:52:10;;;;;;;25.50;12.70;;;;;;;10.98;100.00;101869.91;5092433;28;20482;-87
2023/05/02 00:54:39;;;;;;;26.00;12.10;;;;;;;10.95;100.00;101864.88;5092835;28;20044;-87
2023/05/02 00:57:10;;;;;;;22.75;12.05;;;;;;;10.93;100.00;101860.69;5092517;28;20035;-88
2023/05/02 00:59:41;;;;;;;24.17;12.02;;;;;;;10.93;100.00;101863.41;5092267;28;20388;-87
2023/05/02 01:02:18;;;;;;;25.30;12.20;;;;;;;10.89;100.00;101868.38;5093652;28;20525;-87
2023/05/02 01:04:55;;;;;;;25.80;11.07;;;;;;;10.80;100.00;101859.50;5092589;28;20464;-87
2023/05/02 01:07:27;;;;;;;23.27;11.57;;;;;;;10.78;100.00;101861.56;5093728;28;20051;-88
2023/05/02 01:10:26;;;;;;;25.58;11.20;;;;;;;10.77;100.00;101875.34;5092576;28;20093;-88
2023/05/02 01:13:31;;;;;;;20.33;10.55;;;;;;;10.73;100.00;101874.03;5092532;28;20036;-88
2023/05/02 01:15:58;;;;;;;21.08;10.15;;;;;;;10.62;100.00;101876.22;5092447;28;20124;-88
2023/05/02 01:18:29;;;;;;;20.77;10.23;;;;;;;10.40;100.00;101878.03;5091861;28;20566;-88
2023/05/02 01:20:59;;;;;;;17.60;9.17;;;;;;;10.25;100.00;101874.47;5094040;28;20036;-88
2023/05/02 01:23:44;;;;;;;;;;;;;;;;;;;;;
2023/05/02 01:26:31;;;;;;;15.90;8.45;;;;;;;10.17;100.00;101878.09;5093616;28;20050;-88
2023/05/02 01:29:10;;;;;;;12.98;8.32;;;;;;;10.14;100.00;101868.50;5093658;28;20034;-88
2023/05/02 01:31:38;;;;;;;19.02;8.40;;;;;;;10.15;100.00;101878.28;5093600;28;20111;-88
2023/05/02 01:37:08;;;;;;;15.15;8.48;;;;;;;10.07;100.00;101862.13;5095030;28;20043;-95
2023/05/02 01:43:18;;;;;;;;;;;;;;;;;;;;;
2023/05/02 01:56:08;;;;;;;17.05;7.75;;;;;;;10.01;100.00;101881.88;4880096;29;20488;-94
2023/05/02 02:02:48;;;;;;;16.85;7.90;;;;;;;10.13;100.00;101898.50;4879699;29;20159;-95
2023/05/02 02:08:50;;;;;;;14.63;8.10;;;;;;;10.10;100.00;101885.31;4881667;29;20043;-95
2023/05/02 02:21:53;;;;;;;13.53;7.70;;;;;;;10.12;100.00;101904.94;4958850;28;20138;-93
2023/05/02 02:24:28;;;;;;;18.08;8.80;;;;;;;10.20;100.00;101921.13;4998952;28;20132;-93
2023/05/02 02:27:23;;;;;;;;;;;;;;;;;;;;;
2023/05/02 02:29:54;;;;;;;18.75;9.88;;;;;;;10.15;100.00;101908.13;5001493;28;20052;-93
2023/05/02 02:39:00;;;;;;;21.67;10.25;;;;;;;10.18;100.00;101921.31;4962230;28;20093;-94
2023/05/02 02:42:08;;;;;;;16.08;9.60;;;;;;;10.23;100.00;101919.91;5015083;28;20041;-94
2023/05/02 02:45:09;;;;;;;;;;;;;;;;;;;;;
2023/05/02 02:51:34;;;;;;;;;;;;;;;;;;;;;
2023/05/02 02:54:12;;;;;;;18.80;9.80;;;;;;;10.28;100.00;101937.31;5077148;28;20119;-94
2023/05/02 02:57:08;;;;;;;;;;;;;;;;;;;;;
2023/05/02 02:59:58;;;;;;;;;;;;;;;;;;;;;
2023/05/02 03:02:31;;;;;;;19.60;10.48;;;;;;;10.21;100.00;101927.41;5077413;28;20037;-93
2023/05/02 03:05:25;;;;;;;18.27;9.37;;;;;;;10.21;100.00;101944.50;5059582;28;20123;-93
2023/05/02 03:07:56;;;;;;;16.23;9.45;;;;;;;10.19;100.00;101938.44;5074774;28;20035;-92
2023/05/02 03:10:34;;;;;;;17.10;9.10;;;;;;;10.18;100.00;101948.44;5042714;28;20028;-93
2023/05/02 03:13:23;;;;;;;;;;;;;;;;;;;;;
2023/05/02 03:16:02;;;;;;;14.30;8.27;;;;;;;10.29;100.00;101966.13;5046084;28;20028;-95
2023/05/02 03:23:09;;;;;;;16.02;7.85;;;;;;;10.32;100.00;101976.59;4998311;28;20041;-95
2023/05/02 03:29:39;;;;;;;19.77;8.55;;;;;;;10.29;100.00;101974.28;5014640;28;20041;-95
2023/05/02 03:36:21;;;;;;;;;;;;;;;;;;;;;
2023/05/02 03:49:24;;;;;;;15.93;8.55;;;;;;;10.23;100.00;101972.31;4938372;29;20047;-95
2023/05/02 04:19:46;;;;;;;;;;;;;;;;;;;;;
2023/05/02 04:22:40;;;;;;;;;;;;;;;;;;;;;
2023/05/02 05:27:45;;;;;;;10.25;1.50;;;;;;;9.98;88.68;102134.34;4931484;29;20086;-94
2023/05/02 05:31:16;;;;;;;4.03;1.85;;;;;;;10.16;88.15;102134.91;4936430;28;20144;-93
2023/05/02 05:37:14;;;;;;;6.38;1.10;;;;;;;10.41;85.85;102137.47;4972280;28;20044;-90
2023/05/02 05:39:49;;;;;;;5.43;1.38;;;;;;;10.49;85.87;102128.41;5076593;28;20043;-93
2023/05/02 05:42:17;;;;;;;11.23;1.75;;;;;;;10.52;85.30;102137.00;5063689;28;20028;-91
2023/05/02 05:44:54;;;;;;;5.38;1.75;;;;;;;10.55;85.21;102141.22;5097947;28;20094;-91
2023/05/02 05:47:25;;;;;;;5.47;1.57;;;;;;;10.55;84.98;102141.22;5048448;28;20093;-92
2023/05/02 05:49:56;;;;;;;6.00;1.58;;;;;;;10.38;85.81;102148.69;5079384;28;20028;-90
2023/05/02 05:52:37;;;;;;;10.27;1.77;;;;;;;10.35;86.43;102144.47;5079120;28;20024;-91
2023/05/02 05:55:09;;;;;;;6.07;1.50;;;;;;;10.21;84.05;102142.50;5079622;28;20468;-90
2023/05/02 05:57:38;;;;;;;4.38;1.45;;;;;;;10.11;85.37;102150.91;5063154;28;20032;-91
2023/05/02 06:00:13;;;;;;;7.73;1.33;;;;;;;10.05;85.31;102153.47;5079045;28;20484;-91
2023/05/02 06:02:40;;;;;;;3.75;1.52;;;;;;;9.99;84.13;102150.47;5062558;28;20036;-91
2023/05/02 06:05:47;;;;;;;6.07;1.13;;;;;;;10.00;83.37;102162.97;5097313;28;20031;-91
2023/05/02 06:08:38;;;;;;;5.18;1.27;;;;;;;9.96;83.72;102163.53;5071476;28;20044;-91
2023/05/02 06:11:27;;;;;;;4.05;1.52;;;;;;;10.07;83.12;102167.69;5096358;28;20036;-90
2023/05/02 06:13:53;;;;;;;4.67;1.53;;;;;;;10.18;81.76;102178.13;5063418;28;20043;-90
2023/05/02 06:16:23;;;;;;;6.22;1.17;;;;;;;10.23;81.45;102169.44;5078653;28;20028;-89
2023/05/02 06:18:58;;;;;;;4.53;1.35;;;;;;;10.33;81.40;102173.66;5097206;28;20031;-90
2023/05/02 06:21:28;;;;;;;4.10;1.53;;;;;;;10.50;81.03;102187.91;5079188;28;20046;-89
2023/05/02 06:23:56;;;;;;;8.80;1.10;;;;;;;10.52;79.88;102187.75;5078704;28;20039;-90
2023/05/02 06:26:21;;;;;;;8.13;1.45;;;;;;;10.42;78.86;102187.97;5062304;28;20028;-90
2023/05/02 06:28:53;;;;;;;8.77;1.50;;;;;;;10.35;79.25;102189.75;5068665;28;20059;-90
2023/05/02 06:31:23;;;;;;;8.50;1.65;;;;;;;10.26;78.27;102194.34;5058265;28;20032;-90
2023/05/02 06:33:51;;;;;;;7.07;1.27;;;;;;;10.17;79.15;102195.41;5058561;28;20040;-90
2023/05/02 06:36:19;;;;;;;8.10;1.02;;;;;;;10.15;79.46;102202.91;5058487;28;20035;-90
2023/05/02 06:38:44;;;;;;;6.65;1.40;;;;;;;10.14;79.28;102214.75;5076161;28;20024;-90
2023/05/02 06:41:18;;;;;;;7.77;1.30;;;;;;;10.12;79.66;102217.66;5058176;28;20044;-90
2023/05/02 06:43:43;;;;;;;8.18;1.50;;;;;;;10.22;80.19;102220.16;5042321;28;20028;-90
2023/05/02 06:46:12;;;;;;;6.90;1.60;;;;;;;10.40;80.17;102221.75;5059067;28;20338;-90
2023/05/02 06:48:50;;;;;;;9.55;1.45;;;;;;;10.63;79.82;102232.59;5057083;28;20062;-89
2023/05/02 06:51:29;;;;;;;;;;;;;;;;;;;;;
2023/05/02 06:54:06;;;;;;;9.17;1.57;;;;;;;10.87;80.10;102234.28;5077174;28;20032;-90
2023/05/02 06:56:34;;;;;;;5.90;1.23;;;;;;;11.04;78.39;102243.97;5058194;28;20044;-90
2023/05/02 06:59:08;;;;;;;8.77;1.17;;;;;;;11.29;77.73;102248.28;5058068;28;20488;-90
2023/05/02 07:01:42;;;;;;;6.95;1.58;;;;;;;11.48;76.36;102252.34;5057817;28;20082;-90
2023/05/02 07:04:07;;;;;;;8.93;2.03;;;;;;;11.75;76.79;102243.53;5041936;28;20479;-90
2023/05/02 07:06:35;;;;;;;9.07;1.30;;;;;;;11.98;74.69;102249.91;5075341;28;20028;-90
2023/05/02 07:09:01;;;;;;;10.10;1.58;;;;;;;11.95;73.12;102251.13;5075532;28;20037;-89
2023/05/02 07:11:26;;;;;;;7.20;1.57;;;;;;;11.98;74.74;102266.22;5057681;28;20453;-89
2023/05/02 07:13:52;;;;;;;9.13;1.73;;;;;;;12.11;74.66;102264.50;5076071;28;20082;-86
2023/05/02 07:16:18;;;;;;;6.83;1.40;;;;;;;12.36;72.01;102261.44;5057405;28;20457;-86
2023/05/02 07:18:46;;;;;;;7.32;1.33;;;;;;;12.49;71.00;102271.63;5075397;28;20091;-86
2023/05/02 07:21:12;;;;;;;10.85;1.70;;;;;;;12.60;70.23;102275.69;5057965;28;20480;-86
2023/05/02 07:23:40;;;;;;;9.43;2.20;;;;;;;12.78;68.68;102272.50;5057419;28;20028;-86
2023/05/02 07:26:08;;;;;;;12.57;1.67;;;;;;;12.90;68.45;102281.00;5057092;28;20083;-87
2023/05/02 07:28:36;;;;;;;7.80;1.80;;;;;;;12.96;66.96;102283.81;5064081;28;20040;-87
2023/05/02 07:31:02;;;;;;;7.53;2.30;;;;;;;12.76;66.70;102289.06;5061521;28;20205;-90
2023/05/02 07:33:28;;;;;;;10.40;1.50;;;;;;;12.58;67.05;102288.69;5077051;28;20432;-90
2023/05/02 07:36:06;;;;;;;8.77;2.22;;;;;;;12.43;67.06;102296.88;5076519;28;20469;-91
2023/05/02 07:38:40;;;;;;;11.57;3.03;;;;;;;12.32;67.83;102286.50;5077874;28;20064;-91
2023/05/02 07:41:24;;;;;;;;;;;;;;;;;;;;;
2023/05/02 07:44:07;;;;;;;8.53;2.10;;;;;;;12.43;68.79;102303.19;5079480;28;20503;-89
2023/05/02 07:47:05;;;;;;;11.70;1.75;;;;;;;12.73;68.53;102303.06;5076781;28;20115;-90
2023/05/02 07:49:32;;;;;;;9.75;1.80;;;;;;;12.89;67.21;102291.06;5063237;28;20043;-90
2023/05/02 07:51:58;;;;;;;6.85;1.98;;;;;;;13.13;66.00;102300.69;5076947;28;20024;-90
2023/05/02 07:54:27;;;;;;;10.73;2.17;;;;;;;13.26;64.25;102299.13;5076701;28;20458;-89
2023/05/02 07:57:07;;;;;;;8.85;1.90;;;;;;;13.18;64.75;102302.81;5078354;28;20533;-92
2023/05/02 07:59:50;;;;;;;;;;;;;;;;;;;;;
2023/05/02 08:02:18;;;;;;;11.68;1.98;;;;;;;12.74;65.29;102302.03;5116229;28;20112;-90
2023/05/02 08:04:52;;;;;;;11.23;2.33;;;;;;;12.68;67.06;102313.72;5098889;28;20032;-90
2023/05/02 08:07:20;;;;;;;9.60;1.90;;;;;;;12.44;66.80;102315.72;5081358;28;20031;-90
2023/05/02 08:10:07;;;;;;;;;;;;;;;;;;;;;
2023/05/02 08:12:38;;;;;;;9.55;2.30;;;;;;;11.91;67.46;102321.34;5099647;28;20068;-90
2023/05/02 08:15:10;;;;;;;8.10;2.00;;;;;;;11.81;67.28;102320.78;5096471;28;20027;-90
2023/05/02 08:17:35;;;;;;;10.93;2.50;;;;;;;11.80;67.68;102340.00;5096357;28;20027;-91
2023/05/02 08:20:22;;;;;;;11.13;2.88;;;;;;;11.82;67.94;102336.06;5096538;28;20027;-91
2023/05/02 08:22:56;;;;;;;6.90;1.50;;;;;;;11.76;64.70;102334.91;5096593;28;20080;-90
2023/05/02 08:25:26;;;;;;;12.77;1.77;;;;;;;11.79;63.47;102350.03;5096646;28;20051;-90
2023/05/02 08:28:07;;;;;;;11.68;1.52;;;;;;;11.82;65.95;102338.78;5097216;28;20028;-91
2023/05/02 08:30:35;;;;;;;9.20;1.55;;;;;;;11.80;62.72;102346.28;5097016;28;20539;-89
2023/05/02 08:33:03;;;;;;;8.45;1.60;;;;;;;11.98;63.12;102356.81;5095993;28;20039;-90
2023/05/02 08:35:29;;;;;;;12.68;1.98;;;;;;;12.19;62.79;102352.47;5096350;28;20023;-90
2023/05/02 08:38:03;;;;;;;6.93;1.67;;;;;;;12.48;61.55;102359.75;5096313;28;20031;-91
2023/05/02 08:40:42;;;;;;;6.93;1.60;;;;;;;12.68;59.99;102368.16;5079439;28;20032;-91
2023/05/02 08:50:16;;;;;;;7.95;1.60;;;;;;;13.21;58.20;102356.09;5079345;28;20108;-92
2023/05/02 08:52:44;;;;;;;9.73;1.70;;;;;;;13.46;55.51;102362.88;5096160;28;20078;-91
2023/05/02 08:55:14;;;;;;;5.43;1.67;;;;;;;13.81;55.73;102365.63;5095484;28;20031;-91
2023/05/02 08:57:55;;;;;;;7.15;1.60;;;;;;;14.16;54.19;102365.59;5091766;28;20047;-91
2023/05/02 09:00:59;;;;;;;;;;;;;;;;;;;;;
2023/05/02 09:10:23;;;;;;;9.60;2.05;;;;;;;15.97;51.26;102379.56;5054978;28;20077;-90
2023/05/02 09:12:56;;;;;;;6.00;1.63;;;;;;;16.08;50.58;102373.44;5096371;28;20471;-91
2023/05/02 09:15:56;;;;;;;6.10;1.60;;;;;;;16.05;49.92;102378.50;5079511;28;20059;-91
2023/05/02 09:18:42;;;;;;;6.93;1.95;;;;;;;15.86;49.35;102374.75;5099404;28;20138;-92
2023/05/02 09:21:24;;;;;;;8.13;2.20;;;;;;;15.76;47.24;102392.41;5080659;28;20120;-92
2023/05/02 09:24:16;;;;;;;10.20;2.10;;;;;;;15.76;47.87;102389.66;5098595;28;20032;-91
2023/05/02 09:26:46;;;;;;;5.95;2.10;;;;;;;15.91;46.45;102380.41;5082321;28;20032;-91
2023/05/02 09:29:42;;;;;;;5.90;1.57;;;;;;;16.09;47.73;102388.81;5095208;28;20108;-91
2023/05/02 09:32:28;;;;;;;5.10;1.73;;;;;;;15.93;45.29;102383.81;5096025;28;20039;-90
2023/05/02 09:35:22;;;;;;;;;;;;;;;;;;;;;
2023/05/02 09:38:15;;;;;;;7.40;1.80;;;;;;;16.09;47.07;102390.69;5115397;28;20031;-96
2023/05/02 09:40:55;;;;;;;4.50;1.63;;;;;;;16.10;46.90;102406.06;5095761;28;20042;-92
2023/05/02 09:43:32;;;;;;;4.10;1.70;;;;;;;16.06;47.59;102423.97;5095853;28;20050;-91
2023/05/02 09:48:57;;;;;;;6.40;2.13;;;;;;;16.16;46.47;102416.16;5113805;28;20067;-92
2023/05/02 09:51:31;;;;;;;6.30;1.90;;;;;;;16.23;46.12;102424.38;5114053;28;20032;-91
2023/05/02 09:54:45;;;;;;;5.38;1.80;;;;;;;16.60;47.10;102409.03;5078620;28;20138;-92
2023/05/02 09:57:22;;;;;;;8.17;1.83;;;;;;;17.06;44.83;102422.75;5079547;28;20031;-92
2023/05/02 10:00:03;;;;;;;6.05;1.42;;;;;;;17.25;44.23;102408.06;5079787;28;20032;-92
2023/05/02 10:02:34;;;;;;;5.68;1.60;;;;;;;17.11;42.75;102428.41;5096321;28;20023;-92
2023/05/02 10:05:01;;;;;;;7.65;1.70;;;;;;;16.93;43.02;102407.22;5096082;28;20023;-93
2023/05/02 10:08:10;;;;;;;8.65;2.42;;;;;;;17.06;43.99;102414.53;5094674;28;20575;-92
2023/05/02 10:10:43;;;;;;;5.97;1.90;;;;;;;17.10;44.31;102419.34;5082953;28;20042;-92
2023/05/02 10:13:20;;;;;;;7.95;2.00;;;;;;;17.52;44.19;102421.56;5095685;28;20076;-92
2023/05/02 10:15:49;;;;;;;5.55;1.98;;;;;;;17.98;43.88;102416.75;5095227;28;20030;-91
2023/05/02 10:18:48;;;;;;;5.15;1.85;;;;;;;18.57;41.38;102423.47;5095246;28;20064;-91
2023/05/02 10:21:28;;;;;;;4.07;1.70;;;;;;;19.02;40.44;102424.19;5081271;28;20559;-92
2023/05/02 10:23:59;;;;;;;6.70;1.73;;;;;;;19.18;39.56;102412.50;5098568;28;20032;-92
2023/05/02 10:26:28;;;;;;;3.65;1.73;;;;;;;19.30;38.72;102418.03;5082330;28;20039;-93
2023/05/02 10:29:12;;;;;;;6.65;2.20;;;;;;;19.44;38.09;102414.00;5094157;28;20101;-93
2023/05/02 10:31:43;;;;;;;8.25;2.38;;;;;;;19.40;38.29;102426.53;5096385;28;20081;-93
2023/05/02 10:34:23;;;;;;;;;;;;;;;;;;;;;
2023/05/02 10:36:51;;;;;;;7.80;2.60;;;;;;;18.44;39.22;102442.88;5097998;28;20034;-94
2023/05/02 10:39:25;;;;;;;8.07;2.10;;;;;;;17.92;40.86;102437.72;5095971;28;20071;-93
2023/05/02 10:42:04;;;;;;;8.30;2.40;;;;;;;17.68;41.11;102440.22;5095589;28;20126;-94
2023/05/02 10:44:44;;;;;;;7.45;2.15;;;;;;;17.96;40.47;102429.88;5096047;28;20127;-93
2023/05/02 10:47:34;;;;;;;6.80;2.33;;;;;;;18.29;40.70;102442.41;5096336;28;20028;-93
2023/05/02 10:50:51;;;;;;;8.07;1.80;;;;;;;18.63;40.79;102438.22;5080055;28;20491;-96
2023/05/02 10:53:57;;;;;;;6.95;2.00;;;;;;;18.74;39.26;102423.66;5069153;28;20043;-93
2023/05/02 10:56:35;;;;;;;;;;;;;;;;;;;;;
2023/05/02 10:59:48;;;;;;;5.10;2.00;;;;;;;20.35;37.68;102447.78;5095413;28;20040;-93
2023/05/02 11:02:27;;;;;;;7.57;2.13;;;;;;;20.71;35.72;102435.56;5011687;28;20063;-93
2023/05/02 11:05:12;;;;;;;5.67;1.83;;;;;;;20.90;34.80;102443.69;5095070;28;20032;-94
2023/05/02 11:07:51;;;;;;;;;;;;;;;;;;;;;
2023/05/02 11:10:22;;;;;;;4.28;1.85;;;;;;;20.24;34.08;102446.69;5097579;28;20035;-94
2023/05/02 11:12:59;;;;;;;5.28;1.80;;;;;;;19.58;33.42;102444.03;5094919;28;20067;-93
2023/05/02 11:15:38;;;;;;;;;;;;;;;;;;;;;
2023/05/02 11:18:21;;;;;;;5.57;1.60;;;;;;;23.89;29.91;102429.91;5096507;28;20036;-93
2023/05/02 11:20:50;;;;;;;7.78;1.88;;;;;;;26.32;25.18;102433.91;5079054;28;20092;-94
2023/05/02 11:23:24;;;;;;;4.35;1.75;;;;;;;26.20;24.33;102443.38;5078267;28;20142;-94
2023/05/02 11:25:59;;;;;;;7.78;2.38;;;;;;;25.20;25.89;102450.38;5078641;28;20038;-93
2023/05/02 11:28:49;;;;;;;;;;;;;;;;;;;;;
2023/05/02 11:31:54;;;;;;;;;;;;;;;;;;;;;
2023/05/02 11:35:04;;;;;;;6.38;2.40;;;;;;;22.31;30.20;102439.09;5117438;28;20028;-94
2023/05/02 11:37:30;;;;;;;5.18;2.30;;;;;;;21.44;30.38;102444.09;5093386;28;20031;-93
2023/05/02 11:43:38;;;;;;;3.67;2.00;;;;;;;25.14;29.16;102437.59;5091294;28;20123;-93
2023/05/02 11:46:11;;;;;;;6.65;2.38;;;;;;;27.18;24.82;102442.91;4998217;28;20029;-94
2023/05/02 11:48:47;;;;;;;8.65;2.45;;;;;;;26.23;24.14;102440.03;5102792;28;20043;-93
2023/05/02 11:51:52;;;;;;;;;;;;;;;;;;;;;
2023/05/02 11:54:29;;;;;;;8.15;4.28;;;;;;;22.82;28.52;102454.66;5102296;28;20040;-93
2023/05/02 11:57:04;;;;;;;7.10;2.50;;;;;;;23.23;27.90;102441.28;5064667;28;20498;-94
2023/05/02 12:00:10;;;;;;;7.90;2.30;;;;;;;23.46;28.77;102442.88;5097655;28;20041;-94
2023/05/02 12:03:03;;;;;;;4.70;2.00;;;;;;;26.46;24.47;102445.22;5097148;28;20036;-93
2023/05/02 12:05:39;;;;;;;3.63;2.15;;;;;;;27.68;23.87;102433.59;5085377;28;20024;-94
2023/05/02 12:08:36;;;;;;;;;;;;;;;;;;;;;
2023/05/02 12:11:23;;;;;;;4.60;2.00;;;;;;;29.42;20.33;102447.25;5121850;28;20119;-94
2023/05/02 12:14:01;;;;;;;8.80;2.78;;;;;;;27.64;21.50;102462.06;5118878;28;20038;-93
2023/05/02 12:16:45;;;;;;;;;;;;;;;;;;;;;
2023/05/02 12:19:11;;;;;;;4.68;2.00;;;;;;;26.69;22.67;102468.81;5116336;28;20069;-94
2023/05/02 12:21:49;;;;;;;5.27;2.30;;;;;;;29.74;21.25;102448.38;5096936;28;20114;-94
2023/05/02 12:24:34;;;;;;;5.60;2.42;;;;;;;32.64;18.67;102455.16;5115468;28;20032;-94
2023/05/02 12:27:20;;;;;;;5.22;2.67;;;;;;;35.98;17.32;102455.91;5096576;28;20127;-94
2023/05/02 12:29:52;;;;;;;7.60;2.75;;;;;;;35.68;15.77;102460.91;5077616;28;20059;-95
2023/05/02 12:33:05;;;;;;;5.63;2.75;;;;;;;34.85;17.59;102474.78;5093604;28;20042;-95
2023/05/02 12:35:46;;;;;;;6.10;3.10;;;;;;;35.89;14.36;102463.66;5090600;28;20043;-95
2023/05/02 12:39:03;;;;;;;6.55;2.65;;;;;;;37.02;16.26;102466.84;5077969;28;20403;-96
2023/05/02 12:41:46;;;;;;;7.03;3.60;;;;;;;38.91;14.17;102474.09;5093922;28;20039;-94
2023/05/02 12:44:55;;;;;;;5.68;2.90;;;;;;;39.01;12.35;102464.97;5097539;28;20065;-95
2023/05/02 12:47:26;;;;;;;4.75;3.00;;;;;;;35.56;13.85;102473.81;5092487;28;20119;-95
2023/05/02 12:50:21;;;;;;;6.77;3.00;;;;;;;35.90;13.96;102473.78;5094834;28;20024;-96
2023/05/02 12:53:06;;;;;;;;;;;;;;;;;;;;;
2023/05/02 12:56:07;;;;;;;;;;;;;;;;;;;;;
2023/05/02 12:58:56;;;;;;;6.00;3.25;;;;;;;39.40;13.23;102486.84;5087208;28;20040;-96
2023/05/02 13:01:33;;;;;;;7.00;3.03;;;;;;;38.94;11.94;102477.00;5078981;28;20032;-96
2023/05/02 13:04:04;;;;;;;5.20;3.37;;;;;;;40.11;11.07;102484.47;5093622;28;20032;-96
2023/05/02 13:06:41;;;;;;;5.40;3.42;;;;;;;41.48;10.34;102468.44;5095097;28;20123;-96
2023/05/02 13:09:25;;;;;;;8.07;3.83;;;;;;;39.78;11.79;102468.91;5093760;28;20028;-95
2023/05/02 13:12:21;;;;;;;;;;;;;;;;;;;;;
2023/05/02 13:15:35;;;;;;;5.13;3.35;;;;;;;36.64;14.40;102468.13;5086159;28;20054;-96
2023/05/02 13:18:45;;;;;;;8.10;3.37;;;;;;;34.08;15.70;102470.06;5078859;28;20071;-96
2023/05/02 13:21:26;;;;;;;5.47;3.10;;;;;;;32.74;15.05;102466.09;5092360;28;20484;-96
2023/05/02 13:24:22;;;;;;;;;;;;;;;;;;;;;
2023/05/02 13:26:50;;;;;;;8.15;3.03;;;;;;;37.97;12.14;102454.88;5094866;28;20028;-96
2023/05/02 13:29:33;;;;;;;6.03;3.17;;;;;;;38.22;11.91;102461.19;5076728;28;20052;-96
2023/05/02 13:35:32;;;;;;;5.88;3.20;;;;;;;39.73;12.11;102463.56;5079196;28;20075;-95
2023/05/02 13:38:13;;;;;;;;;;;;;;;;;;;;;
2023/05/02 13:40:56;;;;;;;4.55;3.47;;;;;;;42.08;9.73;102462.44;5089980;28;20371;-96
2023/05/02 13:43:52;;;;;;;4.30;3.60;;;;;;;43.59;9.57;102461.50;5095408;28;20027;-96
2023/05/02 13:46:35;;;;;;;8.30;4.00;;;;;;;43.01;9.12;102466.25;5075431;28;20043;-96
2023/05/02 13:49:18;;;;;;;5.03;3.55;;;;;;;43.67;10.57;102468.81;5093845;28;20040;-96
2023/05/02 13:51:58;;;;;;;4.93;3.30;;;;;;;44.37;9.08;102456.94;5076148;28;20044;-96
2023/05/02 13:54:32;;;;;;;5.97;4.07;;;;;;;44.04;8.96;102463.94;5094078;28;20039;-96
2023/05/02 13:57:12;;;;;;;7.57;4.00;;;;;;;44.94;9.34;102460.81;5094915;28;20036;-96
2023/05/02 14:00:28;;;;;;;9.07;5.17;;;;;;;45.74;8.61;102458.22;5097901;28;20135;-96
2023/05/02 14:05:56;;;;;;;6.97;4.07;;;;;;;44.40;8.42;102456.13;5605314;22;20061;-95
2023/05/02 14:21:40;;;;;;;6.60;4.45;;;;;;;42.30;8.86;102450.38;6072003;22;21007;-96
2023/05/02 14:24:13;;;;;;;4.28;3.88;;;;;;;39.27;10.13;102435.09;5039616;28;20040;-92
2023/05/02 14:26:50;;;;;;;7.70;3.83;;;;;;;36.92;11.34;102430.59;5038373;28;20115;-92
2023/05/02 14:29:28;;;;;;;4.90;3.67;;;;;;;34.53;13.27;102435.69;5022503;28;20029;-92
2023/05/02 14:31:58;;;;;;;7.00;3.53;;;;;;;32.57;14.21;102449.19;5056382;28;20029;-94
2023/05/02 14:34:29;;;;;;;5.07;3.60;;;;;;;31.89;15.23;102438.22;5038411;28;20036;-91
2023/05/02 14:37:08;;;;;;;9.38;3.28;;;;;;;34.28;14.40;102439.50;5037991;28;20041;-91
2023/05/02 14:39:38;;;;;;;6.17;3.43;;;;;;;36.60;12.06;102436.94;5056299;28;20064;-91
2023/05/02 14:42:04;;;;;;;9.35;4.60;;;;;;;37.46;11.53;102429.31;5038593;28;20037;-91
2023/05/02 14:44:30;;;;;;;9.35;3.88;;;;;;;38.49;11.38;102433.06;5040590;28;20040;-91
2023/05/02 14:46:56;;;;;;;6.20;3.57;;;;;;;39.14;10.71;102428.78;5052183;28;20068;-91
2023/05/02 14:49:23;;;;;;;8.63;3.38;;;;;;;40.21;9.73;102431.84;5054048;28;20090;-91
2023/05/02 14:51:49;;;;;;;7.20;4.03;;;;;;;40.00;10.32;102432.31;5054647;28;20112;-91
2023/05/02 14:54:21;;;;;;;7.07;3.70;;;;;;;37.63;11.77;102433.78;5054353;28;20052;-91
2023/05/02 14:56:50;;;;;;;5.38;3.83;;;;;;;34.56;13.19;102429.41;5038924;28;20049;-92
2023/05/02 14:59:21;;;;;;;10.02;4.28;;;;;;;33.24;14.00;102425.44;5054275;28;20079;-92
2023/05/02 15:01:47;;;;;;;7.68;3.72;;;;;;;34.67;13.88;102429.00;5054657;28;20036;-92
2023/05/02 15:04:17;;;;;;;6.30;3.50;;;;;;;35.80;12.86;102436.38;5054640;28;20365;-92
2023/05/02 15:06:52;;;;;;;8.13;4.10;;;;;;;36.98;12.04;102431.97;5038581;28;20124;-92
2023/05/02 15:09:20;;;;;;;7.25;3.80;;;;;;;37.53;12.24;102423.81;5038569;28;20036;-92
2023/05/02 15:11:48;;;;;;;9.50;3.80;;;;;;;37.37;11.07;102423.81;5055689;28;20037;-92
2023/05/02 15:14:23;;;;;;;5.57;3.55;;;;;;;38.37;11.27;102434.03;5054169;28;20028;-92
2023/05/02 15:16:51;;;;;;;6.93;3.80;;;;;;;38.47;10.85;102432.59;5037628;28;20052;-92
2023/05/02 15:19:25;;;;;;;8.65;4.15;;;;;;;38.06;11.63;102435.72;5054078;28;20381;-94
2023/05/02 15:22:00;;;;;;;5.80;3.78;;;;;;;38.40;11.18;102435.28;5057676;28;20093;-94
2023/05/02 15:24:34;;;;;;;5.50;4.07;;;;;;;38.61;10.29;102432.13;5058903;28;20072;-93
2023/05/02 15:27:02;;;;;;;5.60;4.07;;;;;;;39.42;10.32;102433.34;5041406;28;20538;-92
2023/05/02 15:29:38;;;;;;;5.80;4.03;;;;;;;40.21;10.19;102431.03;5057400;28;20024;-92
2023/05/02 15:32:04;;;;;;;7.10;4.03;;;;;;;39.68;9.96;102429.78;5056930;28;20476;-92
2023/05/02 15:34:30;;;;;;;8.50;3.90;;;;;;;39.70;10.27;102430.22;5056737;28;20072;-91
2023/05/02 15:36:59;;;;;;;8.65;4.18;;;;;;;39.75;10.33;102427.06;5057095;28;20107;-91
2023/05/02 15:39:27;;;;;;;8.27;4.32;;;;;;;39.80;10.01;102438.09;5057349;28;20116;-92
2023/05/02 15:41:56;;;;;;;6.40;4.20;;;;;;;38.83;10.32;102443.91;5056883;28;20036;-92
2023/05/02 15:44:22;;;;;;;8.93;4.22;;;;;;;37.22;10.62;102434.69;5057516;28;20024;-92
2023/05/02 15:47:00;;;;;;;8.83;3.70;;;;;;;37.65;11.35;102445.53;5056605;28;20020;-92
2023/05/02 15:49:31;;;;;;;11.83;7.30;;;;;;;37.61;10.93;102445.47;5057349;28;20279;-93
2023/05/02 15:52:00;;;;;;;7.80;4.05;;;;;;;37.46;11.16;102430.13;5058053;28;20032;-92
2023/05/02 15:54:38;;;;;;;5.72;3.85;;;;;;;37.43;11.09;102444.16;5057576;28;20035;-92
2023/05/02 15:57:13;;;;;;;13.60;4.50;;;;;;;37.54;12.16;102446.09;5040434;28;20043;-92
2023/05/02 15:59:46;;;;;;;8.75;4.18;;;;;;;35.72;12.31;102448.56;5040506;28;20028;-92
2023/05/02 16:02:14;;;;;;;7.53;4.17;;;;;;;35.54;12.89;102439.47;5057078;28;20074;-93
2023/05/02 16:04:41;;;;;;;7.78;4.22;;;;;;;35.31;13.11;102447.53;5056406;28;20128;-93
2023/05/02 16:07:10;;;;;;;9.70;4.10;;;;;;;34.50;13.09;102444.00;5056511;28;20086;-92
2023/05/02 16:09:37;;;;;;;8.35;4.65;;;;;;;33.55;13.90;102446.88;5074463;28;20417;-92
2023/05/02 16:12:03;;;;;;;11.15;4.63;;;;;;;32.00;14.72;102456.44;5056350;28;20107;-92